createdAt,value
2023-02-11T00:03:24.041Z,101846.09
2023-02-11T00:13:26.945Z,101823.91
2023-02-11T00:23:29.415Z,101824.06
2023-02-11T00:33:31.887Z,101811.75
2023-02-11T00:43:35.686Z,101808.41
2023-02-11T00:53:38.744Z,101791.97
2023-02-11T01:03:41.547Z,101750.03
2023-02-11T01:13:44.543Z,101767.28
2023-02-11T01:23:47.119Z,101756.38
2023-02-11T01:33:49.645Z,101734.81
2023-02-11T01:43:52.162Z,101747.34
2023-02-11T01:54:14.483Z,101726.97
2023-02-11T02:04:19.073Z,101729.75
2023-02-11T02:14:21.677Z,101726.91
2023-02-11T02:25:01.164Z,101741.88
2023-02-11T02:35:22.996Z,101723.50
2023-02-11T02:45:25.452Z,101721.06
2023-02-11T02:55:47.229Z,101722.28
2023-02-11T03:06:16.552Z,101699.66
2023-02-11T03:16:23.017Z,101692.19
2023-02-11T03:26:28.575Z,101680.75
2023-02-11T03:36:38.561Z,101662.09
2023-02-11T03:46:48.045Z,101675.09
2023-02-11T03:56:56.979Z,101651.00
2023-02-11T04:06:59.434Z,101640.16
2023-02-11T04:17:02.143Z,101635.38
2023-02-11T04:27:04.793Z,101616.41
2023-02-11T04:37:08.511Z,101620.94
2023-02-11T04:47:13.493Z,101607.53
2023-02-11T04:57:16.016Z,101588.94
2023-02-11T05:07:18.720Z,101600.13
2023-02-11T05:17:21.302Z,101608.59
2023-02-11T05:27:23.799Z,101595.41
2023-02-11T05:37:26.395Z,101599.94
2023-02-11T05:47:29.316Z,101597.13
2023-02-11T05:57:31.755Z,101595.19
2023-02-11T06:07:34.424Z,101599.25
2023-02-11T06:17:37.499Z,101603.00
2023-02-11T06:27:40.562Z,101602.50
2023-02-11T06:37:43.388Z,101595.25
2023-02-11T06:47:45.873Z,101581.63
2023-02-11T06:57:48.443Z,101591.78
2023-02-11T07:07:50.990Z,101595.69
2023-02-11T07:17:53.626Z,101562.78
2023-02-11T07:27:56.849Z,101581.44
2023-02-11T07:37:59.373Z,101576.59
2023-02-11T07:48:01.955Z,101564.56
2023-02-11T07:58:04.449Z,101555.16
2023-02-11T08:08:07.037Z,101546.16
2023-02-11T08:18:09.554Z,101536.28
2023-02-11T08:28:12.079Z,101554.09
2023-02-11T08:38:14.602Z,101550.38
2023-02-11T08:48:17.105Z,101561.47
2023-02-11T08:58:20.660Z,101535.97
2023-02-11T09:08:24.320Z,101538.69
2023-02-11T09:18:28.505Z,101531.00
2023-02-11T09:28:30.970Z,101520.88
2023-02-11T09:38:33.906Z,101529.78
2023-02-11T09:48:42.028Z,101516.09
2023-02-11T09:58:45.349Z,101467.97
2023-02-11T10:09:06.886Z,101453.41
2023-02-11T10:19:35.476Z,101448.75
2023-02-11T10:29:46.322Z,101434.13
2023-02-11T10:39:48.771Z,101430.69
2023-02-11T10:49:52.015Z,101406.53
2023-02-11T11:00:00.355Z,101386.00
2023-02-11T11:10:25.168Z,101382.44
2023-02-11T11:20:30.494Z,101366.31
2023-02-11T11:30:42.855Z,101362.50
2023-02-11T11:40:45.432Z,101346.59
2023-02-11T11:50:53.851Z,101360.00
2023-02-11T12:01:05.106Z,101343.78
2023-02-11T12:11:22.958Z,101306.41
2023-02-11T12:21:52.271Z,101274.41
2023-02-11T12:32:08.035Z,101247.38
2023-02-11T12:43:09.031Z,101245.88
2023-02-11T12:53:37.096Z,101214.59
2023-02-11T13:03:45.224Z,101202.59
2023-02-11T13:14:11.782Z,101198.06
2023-02-11T13:24:20.247Z,101209.28
2023-02-11T13:34:47.096Z,101218.81
2023-02-11T13:44:50.204Z,101208.53
2023-02-11T13:54:54.755Z,101186.31
2023-02-11T14:05:24.757Z,101167.16
2023-02-11T14:15:27.922Z,101155.03
2023-02-11T14:25:31.086Z,101187.53
2023-02-11T14:35:39.538Z,101222.06
2023-02-11T14:45:51.190Z,101231.00
2023-02-11T14:55:55.632Z,101216.16
2023-02-11T15:06:18.487Z,101211.88
2023-02-11T15:16:24.920Z,101179.59
2023-02-11T15:26:29.139Z,101196.38
2023-02-11T15:36:34.296Z,101151.84
2023-02-11T15:46:39.513Z,101154.59
2023-02-11T15:56:45.023Z,101146.03
2023-02-11T16:06:48.436Z,101129.59
2023-02-11T16:16:54.458Z,101106.13
2023-02-11T16:27:02.832Z,101140.25
2023-02-11T16:37:06.151Z,101147.41
2023-02-11T16:47:20.707Z,101170.13
2023-02-11T16:57:26.928Z,101167.63
2023-02-11T17:07:31.281Z,101171.19
2023-02-11T17:17:33.973Z,101181.69
2023-02-11T17:27:36.763Z,101200.09
2023-02-11T17:37:39.281Z,101215.84
2023-02-11T17:47:42.147Z,101181.81
2023-02-11T17:57:44.889Z,101187.91
2023-02-11T18:07:48.585Z,101184.41
2023-02-11T18:17:51.338Z,101200.03
2023-02-11T18:27:56.197Z,101225.25
2023-02-11T18:37:58.741Z,101207.00
2023-02-11T18:48:03.753Z,101209.63
2023-02-11T18:58:07.245Z,101212.22
2023-02-11T19:08:09.835Z,101199.13
2023-02-11T19:18:14.357Z,101215.66
2023-02-11T19:28:17.409Z,101212.16
2023-02-11T19:38:23.479Z,101236.53
2023-02-11T19:48:27.280Z,101226.97
2023-02-11T19:58:30.055Z,101242.69
2023-02-11T20:08:33.325Z,101247.91
2023-02-11T20:18:36.923Z,101247.88
2023-02-11T20:28:39.694Z,101245.31
2023-02-11T20:38:43.153Z,101247.91
2023-02-11T20:48:46.414Z,101229.72
2023-02-11T20:58:50.063Z,101239.28
2023-02-11T21:08:54.135Z,101234.88
2023-02-11T21:18:57.555Z,101221.81
2023-02-11T21:28:59.977Z,101229.69
2023-02-11T21:39:04.087Z,101223.53
2023-02-11T21:49:07.847Z,101227.81
2023-02-11T21:59:14.053Z,101230.50
2023-02-11T22:09:17.004Z,101234.88
2023-02-11T22:19:19.603Z,101222.75
2023-02-11T22:29:22.347Z,101234.06
2023-02-11T22:39:25.295Z,101216.28
2023-02-11T22:49:29.026Z,101224.41
2023-02-11T22:59:31.507Z,101220.66
2023-02-11T23:09:34.059Z,101226.63
2023-02-11T23:19:36.838Z,101235.16
2023-02-11T23:29:39.413Z,101238.53
2023-02-11T23:39:41.925Z,101223.66
2023-02-11T23:49:44.564Z,101234.53
2023-02-11T23:59:49.781Z,101232.09
